Terminal Aerodrome Forecast
Issued by NWS Huntsville, AL

Home | Current Version | Previous Version | Text Only | Print | Product List | Glossary On
Versions: 1 2 3 4 5 6 7 8 9 10 11 12 13 14 15
000
FTUS44 KHUN 250525
TAFMSL
TAF
KMSL 250525Z 2506/2606 29008KT P6SM VCSH BKN050 OVC070
     FM250800 32009G15KT P6SM SCT040 BKN060
     FM251800 33010KT P6SM SKC=

USA.gov is the U.S. government's official web portal to all federal, state and local government web resources and services.